createdAt,value
2023-04-09T00:01:09.512Z,100.00
2023-04-09T00:05:22.182Z,100.00
2023-04-09T00:09:34.666Z,100.00
2023-04-09T00:13:47.115Z,100.00
2023-04-09T00:18:00.485Z,100.00
2023-04-09T00:22:18.780Z,100.00
2023-04-09T00:26:32.329Z,100.00
2023-04-09T00:30:54.733Z,100.00
2023-04-09T00:35:07.466Z,100.00
2023-04-09T00:39:20.105Z,100.00
2023-04-09T00:43:32.545Z,100.00
2023-04-09T00:47:47.105Z,100.00
2023-04-09T00:51:59.713Z,100.00
2023-04-09T00:56:13.193Z,100.00
2023-04-09T01:00:25.741Z,100.00
2023-04-09T01:04:43.228Z,100.00
2023-04-09T01:09:24.336Z,100.00
2023-04-09T01:13:54.641Z,100.00
2023-04-09T01:18:32.907Z,100.00
2023-04-09T01:22:57.482Z,100.00
2023-04-09T01:27:10.558Z,100.00
2023-04-09T01:31:30.958Z,100.00
2023-04-09T01:35:47.173Z,100.00
2023-04-09T01:40:00.219Z,100.00
2023-04-09T01:44:13.759Z,100.00
2023-04-09T01:48:27.298Z,100.00
2023-04-09T01:52:40.157Z,100.00
2023-04-09T01:56:52.604Z,100.00
2023-04-09T02:01:17.704Z,100.00
2023-04-09T02:05:37.184Z,100.00
2023-04-09T02:09:50.512Z,100.00
2023-04-09T02:14:05.384Z,100.00
2023-04-09T02:18:30.103Z,100.00
2023-04-09T02:22:52.472Z,100.00
2023-04-09T02:27:08.778Z,100.00
2023-04-09T02:31:21.269Z,100.00
2023-04-09T02:35:34.482Z,100.00
2023-04-09T02:39:56.998Z,100.00
2023-04-09T02:44:09.456Z,100.00
2023-04-09T02:48:22.039Z,100.00
2023-04-09T02:52:34.516Z,100.00
2023-04-09T02:56:46.941Z,100.00
2023-04-09T03:00:59.360Z,100.00
2023-04-09T03:05:11.855Z,100.00
2023-04-09T03:09:24.313Z,100.00
2023-04-09T03:13:36.720Z,100.00
2023-04-09T03:17:49.181Z,100.00
2023-04-09T03:22:01.677Z,100.00
2023-04-09T03:26:22.654Z,100.00
2023-04-09T03:30:45.113Z,100.00
2023-04-09T03:34:57.667Z,100.00
2023-04-09T03:39:10.131Z,100.00
2023-04-09T03:43:24.218Z,100.00
2023-04-09T03:47:39.509Z,100.00
2023-04-09T03:51:51.992Z,100.00
2023-04-09T03:56:04.508Z,100.00
2023-04-09T04:00:17.230Z,100.00
2023-04-09T04:04:29.986Z,100.00
2023-04-09T04:08:42.470Z,100.00
2023-04-09T04:12:54.973Z,100.00
2023-04-09T04:17:07.419Z,100.00
2023-04-09T04:21:19.888Z,100.00
2023-04-09T04:25:36.357Z,100.00
2023-04-09T04:30:00.829Z,100.00
2023-04-09T04:34:13.226Z,100.00
2023-04-09T04:38:36.013Z,100.00
2023-04-09T04:42:48.477Z,100.00
2023-04-09T04:47:01.011Z,100.00
2023-04-09T04:51:23.478Z,100.00
2023-04-09T04:55:42.733Z,100.00
2023-04-09T04:59:55.138Z,100.00
2023-04-09T05:04:08.095Z,100.00
2023-04-09T05:08:20.577Z,100.00
2023-04-09T05:12:33.202Z,100.00
2023-04-09T05:16:53.601Z,100.00
2023-04-09T05:21:07.084Z,100.00
2023-04-09T05:25:19.603Z,100.00
2023-04-09T05:29:32.052Z,100.00
2023-04-09T05:33:44.557Z,100.00
2023-04-09T05:37:56.986Z,100.00
2023-04-09T05:42:09.407Z,100.00
2023-04-09T05:46:32.277Z,100.00
2023-04-09T05:50:55.097Z,100.00
2023-04-09T05:55:08.869Z,100.00
2023-04-09T05:59:21.508Z,100.00
2023-04-09T06:03:34.125Z,100.00
2023-04-09T06:07:46.637Z,100.00
2023-04-09T06:11:59.166Z,100.00
2023-04-09T06:16:11.757Z,100.00
2023-04-09T06:20:24.270Z,100.00
2023-04-09T06:24:36.819Z,100.00
2023-04-09T06:28:49.288Z,100.00
2023-04-09T06:33:01.803Z,100.00
2023-04-09T06:37:14.261Z,100.00
2023-04-09T06:41:27.396Z,100.00
2023-04-09T06:45:43.408Z,100.00
2023-04-09T06:49:56.156Z,100.00
2023-04-09T06:54:08.760Z,100.00
2023-04-09T06:58:21.883Z,100.00
2023-04-09T07:02:35.252Z,100.00
2023-04-09T07:06:48.450Z,100.00
2023-04-09T07:11:00.914Z,100.00
2023-04-09T07:15:13.324Z,100.00
2023-04-09T07:19:26.852Z,100.00
2023-04-09T07:23:43.289Z,100.00
2023-04-09T07:27:55.779Z,100.00
2023-04-09T07:32:08.460Z,100.00
2023-04-09T07:36:21.150Z,100.00
2023-04-09T07:40:35.591Z,100.00
2023-04-09T07:44:48.604Z,100.00
2023-04-09T07:49:01.505Z,100.00
2023-04-09T07:53:14.056Z,100.00
2023-04-09T07:57:27.158Z,100.00
2023-04-09T08:01:39.741Z,100.00
2023-04-09T08:05:52.241Z,100.00
2023-04-09T08:10:05.961Z,100.00
2023-04-09T08:14:26.518Z,100.00
2023-04-09T08:18:38.941Z,100.00
2023-04-09T08:22:51.415Z,100.00
2023-04-09T08:27:03.966Z,100.00
2023-04-09T08:31:16.543Z,100.00
2023-04-09T08:35:31.952Z,100.00
2023-04-09T08:39:54.462Z,100.00
2023-04-09T08:44:06.981Z,100.00
2023-04-09T08:48:30.438Z,100.00
2023-04-09T08:52:43.926Z,100.00
2023-04-09T08:56:58.374Z,100.00
2023-04-09T09:01:23.215Z,100.00
2023-04-09T09:05:44.820Z,94.63
2023-04-09T09:10:04.968Z,100.00
2023-04-09T09:14:27.415Z,93.79
2023-04-09T09:18:50.885Z,92.62
2023-04-09T09:23:05.100Z,94.43
2023-04-09T09:27:41.112Z,83.71
2023-04-09T09:31:55.951Z,88.05
2023-04-09T09:36:10.259Z,91.26
2023-04-09T09:40:29.595Z,80.10
2023-04-09T09:44:42.446Z,72.33
2023-04-09T09:48:55.778Z,80.19
2023-04-09T09:53:10.228Z,76.41
2023-04-09T09:57:26.927Z,81.71
2023-04-09T10:01:41.458Z,77.41
2023-04-09T10:05:54.728Z,79.78
2023-04-09T10:10:09.081Z,86.74
2023-04-09T10:14:23.275Z,82.74
2023-04-09T10:18:36.770Z,85.66
2023-04-09T10:22:52.603Z,80.47
2023-04-09T10:27:16.134Z,85.98
2023-04-09T10:32:03.860Z,83.38
2023-04-09T10:36:21.057Z,87.51
2023-04-09T10:40:33.554Z,71.83
2023-04-09T10:44:46.857Z,80.33
2023-04-09T10:49:11.192Z,67.11
2023-04-09T10:53:27.350Z,67.24
2023-04-09T10:57:39.810Z,71.44
2023-04-09T11:01:55.536Z,66.65
2023-04-09T11:06:11.277Z,70.86
2023-04-09T11:10:24.470Z,69.94
2023-04-09T11:14:37.290Z,68.38
2023-04-09T11:18:49.852Z,75.67
2023-04-09T11:23:02.686Z,76.27
2023-04-09T11:27:15.089Z,66.43
2023-04-09T11:31:30.710Z,61.91
2023-04-09T11:35:43.273Z,67.94
2023-04-09T11:39:57.820Z,69.28
2023-04-09T11:44:10.523Z,70.01
2023-04-09T11:48:25.640Z,73.68
2023-04-09T11:52:38.344Z,87.36
2023-04-09T11:56:56.757Z,77.05
2023-04-09T12:01:09.266Z,70.12
2023-04-09T12:05:35.910Z,66.69
2023-04-09T12:09:49.648Z,73.51
2023-04-09T12:14:06.662Z,65.83
2023-04-09T12:18:19.162Z,62.46
2023-04-09T12:22:31.664Z,60.60
2023-04-09T12:26:46.804Z,61.10
2023-04-09T12:31:12.716Z,63.15
2023-04-09T12:35:25.508Z,68.77
2023-04-09T12:39:38.020Z,69.86
2023-04-09T12:43:50.742Z,68.66
2023-04-09T12:48:03.816Z,72.80
2023-04-09T12:52:16.954Z,71.19
2023-04-09T12:56:29.919Z,67.38
2023-04-09T13:00:43.720Z,75.05
2023-04-09T13:04:56.235Z,73.07
2023-04-09T13:09:11.845Z,73.45
2023-04-09T13:13:24.399Z,83.00
2023-04-09T13:17:36.949Z,80.94
2023-04-09T13:21:49.435Z,84.52
2023-04-09T13:26:02.158Z,82.01
2023-04-09T13:30:15.034Z,79.50
2023-04-09T13:34:27.490Z,73.97
2023-04-09T13:38:40.173Z,70.12
2023-04-09T13:42:52.633Z,66.30
2023-04-09T13:47:05.207Z,60.20
2023-04-09T13:51:17.724Z,55.55
2023-04-09T13:55:31.676Z,53.42
2023-04-09T13:59:44.760Z,53.30
2023-04-09T14:03:57.528Z,49.55
2023-04-09T14:08:10.226Z,54.86
2023-04-09T14:12:32.704Z,64.11
2023-04-09T14:16:45.164Z,65.68
2023-04-09T14:20:59.791Z,63.82
2023-04-09T14:25:12.276Z,61.28
2023-04-09T14:29:31.460Z,69.42
2023-04-09T14:33:43.909Z,67.89
2023-04-09T14:37:56.779Z,68.03
2023-04-09T14:42:09.239Z,76.43
2023-04-09T14:46:22.808Z,59.69
2023-04-09T14:50:36.963Z,49.80
2023-04-09T14:54:49.442Z,46.82
2023-04-09T14:59:11.994Z,45.87
2023-04-09T15:03:24.829Z,45.93
2023-04-09T15:07:37.695Z,46.81
2023-04-09T15:11:50.314Z,47.67
2023-04-09T15:16:02.791Z,47.29
2023-04-09T15:20:15.282Z,49.03
2023-04-09T15:24:27.698Z,66.24
2023-04-09T15:28:40.370Z,46.17
2023-04-09T15:32:53.488Z,46.11
2023-04-09T15:37:06.030Z,47.71
2023-04-09T15:41:18.786Z,52.68
2023-04-09T15:45:31.494Z,60.59
2023-04-09T15:49:44.107Z,59.75
2023-04-09T15:53:56.827Z,63.93
2023-04-09T15:58:09.297Z,52.70
2023-04-09T16:02:31.928Z,51.14
2023-04-09T16:06:44.388Z,60.74
2023-04-09T16:10:56.822Z,54.55
2023-04-09T16:15:10.562Z,56.86
2023-04-09T16:19:23.025Z,61.14
2023-04-09T16:23:45.507Z,57.35
2023-04-09T16:27:57.972Z,58.41
2023-04-09T16:32:10.598Z,63.33
2023-04-09T16:36:23.198Z,61.95
2023-04-09T16:40:45.209Z,62.58
2023-04-09T16:44:57.714Z,66.79
2023-04-09T16:49:10.451Z,66.64
2023-04-09T16:53:22.950Z,68.66
2023-04-09T16:57:45.418Z,64.35
2023-04-09T17:01:58.152Z,64.17
2023-04-09T17:06:10.786Z,60.89
2023-04-09T17:10:23.264Z,64.59
2023-04-09T17:14:45.814Z,73.94
2023-04-09T17:18:58.391Z,76.09
2023-04-09T17:23:11.135Z,81.14
2023-04-09T17:27:23.581Z,90.29
2023-04-09T17:31:36.048Z,92.98
2023-04-09T17:35:53.782Z,100.00
2023-04-09T17:40:07.343Z,100.00
2023-04-09T17:44:20.355Z,100.00
2023-04-09T17:48:32.991Z,100.00
2023-04-09T17:52:45.470Z,100.00
2023-04-09T17:56:58.438Z,100.00
2023-04-09T18:01:21.597Z,100.00
2023-04-09T18:05:39.830Z,100.00
2023-04-09T18:09:52.341Z,100.00
2023-04-09T18:14:08.666Z,100.00
2023-04-09T18:18:21.317Z,100.00
2023-04-09T18:22:34.499Z,100.00
2023-04-09T18:26:47.327Z,100.00
2023-04-09T18:30:59.839Z,100.00
2023-04-09T18:35:22.289Z,100.00
2023-04-09T18:39:43.555Z,100.00
2023-04-09T18:43:56.335Z,100.00
2023-04-09T18:48:09.572Z,100.00
2023-04-09T18:52:22.805Z,100.00
2023-04-09T18:56:35.295Z,100.00
2023-04-09T19:00:54.018Z,100.00
2023-04-09T19:05:07.900Z,100.00
2023-04-09T19:09:30.459Z,100.00
2023-04-09T19:13:42.971Z,100.00
2023-04-09T19:17:56.482Z,100.00
2023-04-09T19:22:08.986Z,100.00
2023-04-09T19:26:22.872Z,100.00
2023-04-09T19:30:35.387Z,100.00
2023-04-09T19:34:47.845Z,100.00
2023-04-09T19:39:00.355Z,100.00
2023-04-09T19:43:15.552Z,100.00
2023-04-09T19:47:28.926Z,100.00
2023-04-09T19:51:41.505Z,100.00
2023-04-09T19:55:54.060Z,100.00
2023-04-09T20:00:08.596Z,100.00
2023-04-09T20:04:21.145Z,100.00
2023-04-09T20:08:33.720Z,100.00
2023-04-09T20:12:50.856Z,100.00
2023-04-09T20:17:03.286Z,100.00
2023-04-09T20:21:16.360Z,100.00
2023-04-09T20:25:35.065Z,100.00
2023-04-09T20:29:47.648Z,100.00
2023-04-09T20:34:00.151Z,100.00
2023-04-09T20:38:12.689Z,100.00
2023-04-09T20:42:28.206Z,100.00
2023-04-09T20:46:40.639Z,100.00
2023-04-09T20:51:04.764Z,100.00
2023-04-09T20:55:17.570Z,100.00
2023-04-09T20:59:29.989Z,100.00
2023-04-09T21:03:42.578Z,100.00
2023-04-09T21:07:56.049Z,100.00
2023-04-09T21:12:12.145Z,100.00
2023-04-09T21:16:25.559Z,100.00
2023-04-09T21:20:38.005Z,100.00
2023-04-09T21:24:57.149Z,100.00
2023-04-09T21:29:09.668Z,100.00
2023-04-09T21:33:22.192Z,100.00
2023-04-09T21:37:35.178Z,100.00
2023-04-09T21:41:47.796Z,100.00
2023-04-09T21:46:00.449Z,100.00
2023-04-09T21:50:13.071Z,100.00
2023-04-09T21:54:25.499Z,100.00
2023-04-09T21:58:44.791Z,100.00
2023-04-09T22:03:04.452Z,100.00
2023-04-09T22:07:17.077Z,100.00
2023-04-09T22:11:29.682Z,100.00
2023-04-09T22:15:42.681Z,100.00
2023-04-09T22:19:55.260Z,100.00
2023-04-09T22:24:08.186Z,100.00
2023-04-09T22:28:30.674Z,100.00
2023-04-09T22:32:43.176Z,100.00
2023-04-09T22:36:55.706Z,100.00
2023-04-09T22:41:08.185Z,100.00
2023-04-09T22:45:20.636Z,100.00
2023-04-09T22:49:35.996Z,100.00
2023-04-09T22:53:48.453Z,100.00
2023-04-09T22:58:00.981Z,100.00
2023-04-09T23:02:21.452Z,100.00
2023-04-09T23:06:33.971Z,100.00
2023-04-09T23:10:46.432Z,100.00
2023-04-09T23:14:58.935Z,100.00
2023-04-09T23:19:12.145Z,100.00
2023-04-09T23:23:24.641Z,100.00
2023-04-09T23:27:37.175Z,100.00
2023-04-09T23:31:49.679Z,100.00
2023-04-09T23:36:02.233Z,100.00
2023-04-09T23:40:16.420Z,100.00
2023-04-09T23:44:29.605Z,100.00
2023-04-09T23:48:42.140Z,100.00
2023-04-09T23:53:00.409Z,100.00
2023-04-09T23:57:13.239Z,100.00
